• Join FlightAware (Why Join?)
  • Login
  • US Flag GB Flag 
22:11 EDT


 

Airport Tracker/Info


-or-


 

Live Flight TrackerFlight Track Log ✈ SWA542 ✈ 21-Apr-2013 ✈ KOAK - KSAN

Flight Track Log - Related Links

Times and Time Zones

All times are in EDT time to prevent confusion due to time zone crossing. See the SWA542 flight status page for this flight to view local times or setup timezone preferences in your user account.

Time Position Orientation Groundspeed Altitude Reporting Facility
EDT Latitude Longitude Course Direction KTS MPH feet Rate Location/Type
00:28 37.7500 -122.2833 202° Southwest 198 228 2,100  Level Northern Cal TRACON
00:29 37.7756 -122.3297 305° West 211 243 4,300 2,940 Climbing Oakland Center
00:30 37.7333 -122.4000 233° Southwest 281 323 8,000 2,640 Climbing Northern Cal TRACON
00:32 37.5653 -122.4389 190° South 366 421 12,500 2,640 Climbing Oakland Center
00:33 37.1212 -122.4894 202° Southwest  Level FlightAware Approximate
00:33 37.4594 -122.4622 190° South 385 443 15,900  Level Oakland Center
00:34 37.3483 -122.4864 190° South 400 460 18,700 2,940 Climbing Oakland Center
00:35 37.2078 -122.5169 190° South 424 488 21,900 2,700 Climbing Oakland Center
00:36 37.0861 -122.5439 190° South 440 506 24,300 2,160 Climbing Oakland Center
00:37 36.9614 -122.5697 189° South 454 522 26,300 1,800 Climbing Oakland Center
00:38 36.8311 -122.5411 170° South 471 542 28,000 1,920 Climbing Oakland Center
00:39 36.7022 -122.5050 167° South 475 547 30,200 2,160 Climbing Oakland Center
00:40 36.5769 -122.4628 165° South 469 540 32,400 1,980 Climbing Oakland Center
00:41 36.4856 -122.3433 134° Southeast 470 541 34,300 1,620 Climbing Oakland Center
00:42 36.3939 -122.2292 135° Southeast 469 540 35,700 1,200 Climbing Oakland Center
00:43 36.3014 -122.1119 134° Southeast 475 547 36,800 1,140 Climbing Oakland Center
00:44 36.2094 -121.9933 134° Southeast 479 551 38,100 1,020 Climbing Oakland Center
00:45 36.1164 -121.8778 135° Southeast 476 548 38,900 420 Climbing Oakland Center
00:46 36.0161 -121.7519 135° Southeast 480 552 39,000  Climbing Oakland Center
00:47 35.9228 -121.6325 134° Southeast 483 556 39,000  Level Oakland Center
00:48 35.8281 -121.5144 135° Southeast 485 558 39,000  Level Oakland Center
00:49 35.7344 -121.3972 135° Southeast 483 556 39,000  Level Oakland Center
00:50 35.6383 -121.2792 135° Southeast 488 562 39,000  Level Oakland Center
00:51 35.5444 -121.1608 134° Southeast 486 559 39,000  Level Oakland Center
00:52 35.4575 -121.0356 130° Southeast 485 558 39,000  Level Oakland Center
00:53 35.3647 -120.8736 125° Southeast 485 558 39,000  Level Oakland Center
00:54 35.2883 -120.7383 125° Southeast 488 562 39,000  Level Oakland Center
00:55 35.2061 -120.5933 125° Southeast 488 562 39,000  Level Los Angeles Center
00:56 35.1286 -120.4558 125° Southeast 488 562 39,000  Level Los Angeles Center
00:57 35.0344 -120.2914 125° Southeast 489 563 39,000  Level Los Angeles Center
00:58 34.9553 -120.1547 125° Southeast 490 564 39,000  Level Los Angeles Center
00:59 34.8742 -120.0147 125° Southeast 485 558 39,000  Level Los Angeles Center
01:00 34.7958 -119.8803 125° Southeast 489 563 39,000  Level Los Angeles Center
01:01 34.7183 -119.7458 125° Southeast 489 563 39,000  Level Los Angeles Center
01:02 34.6397 -119.6114 125° Southeast 491 565 39,000  Level Los Angeles Center
01:03 34.5575 -119.4750 126° Southeast 489 563 39,000  Level Los Angeles Center
01:04 34.4783 -119.3406 126° Southeast 490 564 39,000  Level Los Angeles Center
01:06 34.3994 -119.2075 126° Southeast 490 564 39,000  Level Los Angeles Center
01:07 34.3192 -119.0739 126° Southeast 492 566 39,000  Level Los Angeles Center
01:08 34.2400 -118.9406 126° Southeast 489 563 39,000  Level Los Angeles Center
01:09 34.1589 -118.8078 126° Southeast 491 565 39,000 -300 Level Los Angeles Center
01:10 34.0789 -118.6747 126° Southeast 490 564 38,500 -840 Descending Los Angeles Center
01:11 33.9825 -118.5156 126° Southeast 490 564 37,300 -1,140 Descending Los Angeles Center
01:12 33.8981 -118.3861 128° Southeast 492 566 36,300 -1,080 Descending Los Angeles Center
01:13 33.8136 -118.2833 135° Southeast 494 568 35,200 -2,160 Descending Los Angeles Center
01:14 33.7236 -118.1644 132° Southeast 488 562 31,900 -3,360 Descending Los Angeles Center
01:15 33.6108 -118.0208 133° Southeast 489 563 28,400 -3,180 Descending Los Angeles Center
01:16 33.5208 -117.9069 133° Southeast 476 548 25,500 -2,400 Descending Los Angeles Center
01:17 33.4342 -117.7969 133° Southeast 459 528 23,600 -3,000 Descending Los Angeles Center
01:18 33.3492 -117.6908 134° Southeast 445 512 19,500 -3,720 Descending Los Angeles Center
01:19 33.2669 -117.5861 133° Southeast 434 499 16,000 -2,220 Descending Los Angeles Center
01:20 33.1800 -117.5056 142° Southeast 398 458 15,000 -1,020 Descending Los Angeles Center
01:21 33.1000 -117.4333 143° Southeast 329 379 14,000 -1,200 Descending Southern California TRACON
01:22 33.0333 -117.3833 148° Southeast 315 362 12,800 -1,440 Descending Southern California TRACON
01:23 32.9667 -117.3333 148° Southeast 310 357 11,300 -1,500 Descending Southern California TRACON
01:24 32.9000 -117.2833 148° Southeast 301 346 10,000 -1,440 Descending Southern California TRACON
01:25 32.8333 -117.2167 140° Southeast 299 344 8,600 -1,260 Descending Southern California TRACON
01:25 32.8192 -117.2161 178° South 297 342 8,400 -1,380 Descending Los Angeles Center
01:26 32.7856 -117.0933 108° East 290 334 6,300 -1,680 Descending Los Angeles Center
01:27 32.7667 -117.0333 111° Southeast 283 326 5,400 -960 Descending Southern California TRACON
01:28 32.7500 -116.9500 103° East 252 290 5,000 -600 Descending Southern California TRACON
01:29 32.7000 -116.9500 180° South 219 252 4,200 -780 Descending Southern California TRACON
01:30 32.7000 -117.0167 270° West 196 226 3,400 -1,140 Descending Southern California TRACON
01:31 32.7000 -117.0667 270° West 164 189 2,000 -1,140 Descending Southern California TRACON
01:32 32.7167 -117.1167 292° West 138 159 1,300 -780 Descending Southern California TRACON
01:32 32.7208 -117.1358 284° West 143 165 800 -660 Descending Los Angeles Center
01:33 32.7319 -117.1828 286° West 138 159 200 -600 Descending Los Angeles Center
01:35 32.7333 -117.1833 275° West  Level FlightAware Approximate
01:42 32.7336 -117.1897 275° West  Level Estimated